Time;durP1;ratioP1;P1;durP2;ratioP2;P2;SDS_P1;SDS_P2;PMS_P1;PMS_P2;Temp;Humidity;BMP_temperature;BMP_pressure;BME280_temperature;BME280_humidity;BME280_pressure;Samples;Min_cycle;Max_cycle;Signal;HPM_P1;HPM_P2
2023/01/26 00:00:48;;;;;;;8.10;2.22;;;;;;;;;;5012959;28;20026;-36
2023/01/26 00:03:15;;;;;;;7.57;2.20;;;;;;;;;;5017682;28;20022;-35
2023/01/26 00:05:42;;;;;;;9.57;2.13;;;;;;;;;;5019374;28;20022;-36
2023/01/26 00:08:09;;;;;;;8.57;2.30;;;;;;;;;;5019369;28;20026;-35
2023/01/26 00:10:36;;;;;;;8.38;2.38;;;;;;;;;;5019356;28;20037;-36
2023/01/26 00:13:04;;;;;;;9.50;2.15;;;;;;;;;;5019220;28;20500;-35
2023/01/26 00:15:34;;;;;;;9.48;2.33;;;;;;;;;;5019309;28;20049;-36
2023/01/26 00:18:01;;;;;;;11.25;2.15;;;;;;;;;;5019389;28;20514;-36
2023/01/26 00:20:28;;;;;;;10.45;2.30;;;;;;;;;;5019368;28;20022;-35
2023/01/26 00:22:55;;;;;;;7.75;2.10;;;;;;;;;;5019325;28;20026;-35
2023/01/26 00:25:22;;;;;;;7.53;2.10;;;;;;;;;;5019135;28;20037;-36
2023/01/26 00:27:49;;;;;;;9.48;2.40;;;;;;;;;;5019179;28;20025;-36
2023/01/26 00:30:16;;;;;;;6.78;2.15;;;;;;;;;;5001559;28;20511;-35
2023/01/26 00:32:43;;;;;;;7.40;2.30;;;;;;;;;;5019217;28;20030;-35
2023/01/26 00:35:10;;;;;;;5.63;1.90;;;;;;;;;;5019121;28;20437;-36
2023/01/26 00:37:37;;;;;;;8.82;2.30;;;;;;;;;;5019150;28;20049;-36
2023/01/26 00:40:04;;;;;;;13.45;2.55;;;;;;;;;;5019124;28;20029;-35
2023/01/26 00:42:31;;;;;;;9.30;2.30;;;;;;;;;;5019156;28;20028;-35
2023/01/26 00:44:58;;;;;;;8.85;1.98;;;;;;;;;;5019120;28;20018;-35
2023/01/26 00:47:25;;;;;;;12.23;2.03;;;;;;;;;;5018926;28;20040;-36
2023/01/26 00:49:52;;;;;;;9.10;2.22;;;;;;;;;;5018935;28;20040;-35
2023/01/26 00:52:19;;;;;;;8.27;2.28;;;;;;;;;;5019053;28;20029;-36
2023/01/26 00:54:46;;;;;;;8.63;2.15;;;;;;;;;;5019025;28;20026;-36
2023/01/26 00:57:13;;;;;;;10.27;2.30;;;;;;;;;;5018896;28;20392;-36
2023/01/26 00:59:41;;;;;;;9.02;2.40;;;;;;;;;;5019004;28;20041;-36
2023/01/26 01:02:08;;;;;;;10.50;2.40;;;;;;;;;;5018914;28;20022;-36
2023/01/26 01:04:35;;;;;;;11.73;2.53;;;;;;;;;;5018933;28;20022;-35
2023/01/26 01:07:02;;;;;;;9.60;2.25;;;;;;;;;;5019002;28;20173;-35
2023/01/26 01:09:29;;;;;;;6.25;1.98;;;;;;;;;;5018850;28;20042;-35
2023/01/26 01:11:56;;;;;;;8.50;2.25;;;;;;;;;;5018734;28;20057;-35
2023/01/26 01:14:23;;;;;;;9.43;2.25;;;;;;;;;;5015968;28;20496;-36
2023/01/26 01:16:50;;;;;;;7.28;2.40;;;;;;;;;;5015669;28;20033;-36
2023/01/26 01:19:18;;;;;;;8.43;2.10;;;;;;;;;;5015713;28;20057;-36
2023/01/26 01:21:45;;;;;;;7.35;2.13;;;;;;;;;;5015653;28;20018;-35
2023/01/26 01:24:12;;;;;;;8.18;2.05;;;;;;;;;;5015617;28;20113;-35
2023/01/26 01:26:39;;;;;;;8.40;2.08;;;;;;;;;;5015428;28;20041;-36
2023/01/26 01:29:07;;;;;;;8.20;2.17;;;;;;;;;;5015446;28;20405;-36
2023/01/26 01:31:34;;;;;;;8.18;2.30;;;;;;;;;;5015494;28;20025;-36
2023/01/26 01:34:00;;;;;;;9.82;2.28;;;;;;;;;;5015356;28;20366;-36
2023/01/26 01:36:30;;;;;;;11.30;2.58;;;;;;;;;;5015227;28;20029;-36
2023/01/26 01:38:57;;;;;;;11.55;2.35;;;;;;;;;;5015260;28;20489;-36
2023/01/26 01:41:24;;;;;;;9.13;2.10;;;;;;;;;;5015222;28;20053;-36
2023/01/26 01:43:51;;;;;;;9.57;2.05;;;;;;;;;;5015195;28;20026;-35
2023/01/26 01:46:30;;;;;;;6.90;2.10;;;;;;;;;;5015137;28;20110;-36
2023/01/26 01:49:02;;;;;;;9.63;2.72;;;;;;;;;;5014979;28;20042;-35
2023/01/26 01:51:29;;;;;;;;;;;;;;;;;;5015563;28;20018;-35
2023/01/26 01:53:58;;;;;;;8.68;2.17;;;;;;;;;;5015066;28;19936;-35
2023/01/26 01:56:27;;;;;;;8.05;2.13;;;;;;;;;;5014971;28;20025;-35
2023/01/26 01:58:55;;;;;;;8.32;2.30;;;;;;;;;;5014923;28;20460;-36
2023/01/26 02:01:22;;;;;;;6.30;1.83;;;;;;;;;;5014227;28;20076;-35
2023/01/26 02:03:51;;;;;;;5.70;2.30;;;;;;;;;;5014912;28;20034;-35
2023/01/26 02:06:27;;;;;;;6.75;2.15;;;;;;;;;;5014796;28;20029;-35
2023/01/26 02:08:55;;;;;;;16.73;2.60;;;;;;;;;;5014666;28;20133;-36
2023/01/26 02:11:40;;;;;;;5.43;1.83;;;;;;;;;;5014535;28;20133;-35
2023/01/26 02:14:09;;;;;;;7.43;2.03;;;;;;;;;;5014687;28;20061;-35
2023/01/26 02:16:38;;;;;;;7.65;2.00;;;;;;;;;;5014574;28;20049;-36
2023/01/26 02:19:08;;;;;;;6.78;2.40;;;;;;;;;;5014574;28;20041;-35
2023/01/26 02:21:35;;;;;;;9.10;2.20;;;;;;;;;;5014515;28;20033;-35
2023/01/26 02:24:08;;;;;;;7.47;2.20;;;;;;;;;;5014541;28;20062;-35
2023/01/26 02:26:35;;;;;;;6.38;2.20;;;;;;;;;;5014262;28;20476;-35
2023/01/26 02:29:04;;;;;;;10.93;2.10;;;;;;;;;;5014519;28;20634;-35
2023/01/26 02:31:31;;;;;;;4.93;1.77;;;;;;;;;;5014383;28;20575;-35
2023/01/26 02:33:58;;;;;;;7.13;2.20;;;;;;;;;;5014268;28;20045;-35
2023/01/26 02:36:26;;;;;;;8.77;2.08;;;;;;;;;;5014197;28;20028;-35
2023/01/26 02:38:56;;;;;;;6.15;1.90;;;;;;;;;;5014135;28;20087;-36
2023/01/26 02:44:10;;;;;;;6.68;2.10;;;;;;;;;;5014083;28;20048;-35
2023/01/26 02:46:37;;;;;;;11.20;2.03;;;;;;;;;;5013877;28;20500;-35
2023/01/26 02:51:49;;;;;;;6.88;2.03;;;;;;;;;;5014224;28;20052;-35
2023/01/26 02:57:21;;;;;;;9.95;2.25;;;;;;;;;;4972749;28;20045;-35
2023/01/26 02:59:48;;;;;;;5.95;2.00;;;;;;;;;;4972581;28;20031;-35
2023/01/26 03:02:17;;;;;;;7.15;1.85;;;;;;;;;;4992558;28;20053;-35
2023/01/26 03:04:44;;;;;;;8.75;2.10;;;;;;;;;;5013677;28;20021;-36
2023/01/26 03:07:11;;;;;;;3.92;1.80;;;;;;;;;;5013568;28;20048;-36
2023/01/26 03:09:38;;;;;;;5.90;1.90;;;;;;;;;;5013479;28;20448;-35
2023/01/26 03:12:05;;;;;;;7.13;1.98;;;;;;;;;;5013379;28;20054;-35
2023/01/26 03:14:32;;;;;;;7.55;1.80;;;;;;;;;;5013483;28;20084;-35
2023/01/26 03:16:59;;;;;;;7.45;2.20;;;;;;;;;;5013671;28;20029;-36
2023/01/26 03:27:45;;;;;;;3.22;1.42;;;;;;;;;;5013366;28;20165;-36
2023/01/26 03:30:13;;;;;;;4.45;1.77;;;;;;;;;;5013238;28;20045;-35
2023/01/26 03:32:40;;;;;;;4.63;1.92;;;;;;;;;;5013295;28;20030;-36
2023/01/26 03:35:13;;;;;;;6.95;1.70;;;;;;;;;;5012997;28;20030;-36
2023/01/26 03:37:43;;;;;;;4.57;1.77;;;;;;;;;;5012683;28;20040;-36
2023/01/26 03:56:43;;;;;;;4.88;2.00;;;;;;;;;;5013168;28;20048;-36
2023/01/26 03:59:13;;;;;;;6.10;1.85;;;;;;;;;;5013175;28;20080;-35
2023/01/26 04:09:57;;;;;;;5.50;1.83;;;;;;;;;;5012762;28;20129;-36
2023/01/26 04:12:24;;;;;;;5.88;2.05;;;;;;;;;;5012607;28;20089;-35
2023/01/26 04:23:06;;;;;;;6.43;1.92;;;;;;;;;;5012766;28;20485;-35
2023/01/26 04:25:33;;;;;;;4.72;1.55;;;;;;;;;;5012612;28;20084;-36
2023/01/26 04:28:00;;;;;;;5.22;1.92;;;;;;;;;;5012531;28;20030;-36
2023/01/26 04:30:27;;;;;;;5.30;1.63;;;;;;;;;;5012670;28;20041;-35
2023/01/26 04:32:54;;;;;;;4.88;1.67;;;;;;;;;;5012652;28;20116;-36
2023/01/26 04:35:20;;;;;;;4.28;1.55;;;;;;;;;;5012508;28;20087;-36
2023/01/26 04:37:48;;;;;;;4.03;1.30;;;;;;;;;;5012576;28;20052;-36
2023/01/26 04:40:15;;;;;;;3.28;1.63;;;;;;;;;;5012726;28;20030;-36
2023/01/26 04:42:41;;;;;;;4.68;1.63;;;;;;;;;;5012584;28;20034;-35
2023/01/26 04:45:10;;;;;;;4.35;1.58;;;;;;;;;;5012399;28;20026;-36
2023/01/26 04:47:37;;;;;;;4.32;1.60;;;;;;;;;;5012483;28;20030;-36
2023/01/26 04:50:04;;;;;;;5.60;1.60;;;;;;;;;;5014508;28;20042;-36
2023/01/26 04:52:31;;;;;;;4.75;1.67;;;;;;;;;;5016120;28;20072;-36
2023/01/26 04:54:58;;;;;;;4.07;1.42;;;;;;;;;;5016040;28;20030;-36
2023/01/26 04:57:25;;;;;;;3.80;1.40;;;;;;;;;;5016125;28;20053;-35
2023/01/26 04:59:52;;;;;;;5.78;1.85;;;;;;;;;;5016040;28;20052;-35
2023/01/26 05:02:19;;;;;;;6.15;1.65;;;;;;;;;;5016027;28;20030;-35
2023/01/26 05:04:46;;;;;;;3.00;1.52;;;;;;;;;;5015835;28;20033;-36
2023/01/26 05:07:12;;;;;;;4.25;1.38;;;;;;;;;;5015960;28;20073;-35
2023/01/26 05:09:39;;;;;;;6.57;1.67;;;;;;;;;;5015797;28;20041;-36
2023/01/26 05:15:06;;;;;;;3.67;1.48;;;;;;;;;;4992912;28;20036;-36
2023/01/26 05:17:34;;;;;;;6.53;1.77;;;;;;;;;;5015646;28;20044;-36
2023/01/26 05:20:02;;;;;;;3.60;1.30;;;;;;;;;;5015593;28;20040;-35
2023/01/26 05:22:29;;;;;;;4.10;1.20;;;;;;;;;;5015666;28;20030;-35
2023/01/26 05:24:56;;;;;;;4.28;1.25;;;;;;;;;;5015529;28;20508;-36
2023/01/26 05:27:23;;;;;;;4.70;1.48;;;;;;;;;;5015504;28;20053;-35
2023/01/26 05:29:50;;;;;;;4.38;1.15;;;;;;;;;;5015435;28;20045;-35
2023/01/26 05:32:17;;;;;;;3.30;1.38;;;;;;;;;;5015420;28;20481;-36
2023/01/26 05:34:44;;;;;;;3.80;1.38;;;;;;;;;;5015578;28;20108;-36
2023/01/26 05:37:11;;;;;;;2.75;1.23;;;;;;;;;;5015401;28;20037;-35
2023/01/26 05:39:38;;;;;;;2.70;1.00;;;;;;;;;;5015275;28;20045;-36
2023/01/26 05:42:05;;;;;;;3.45;1.10;;;;;;;;;;5015292;28;20029;-35
2023/01/26 05:44:32;;;;;;;4.10;1.10;;;;;;;;;;5015219;28;20484;-35
2023/01/26 05:46:59;;;;;;;2.03;1.15;;;;;;;;;;5015102;28;20029;-35
2023/01/26 05:49:26;;;;;;;2.47;1.00;;;;;;;;;;5015018;28;20057;-35
2023/01/26 05:51:53;;;;;;;3.53;1.13;;;;;;;;;;5015080;28;20034;-35
2023/01/26 05:54:20;;;;;;;2.80;1.00;;;;;;;;;;5014977;28;20447;-36
2023/01/26 05:56:47;;;;;;;2.75;0.90;;;;;;;;;;5014896;28;20033;-35
2023/01/26 05:59:14;;;;;;;1.60;0.80;;;;;;;;;;5014911;28;20030;-35
2023/01/26 06:01:41;;;;;;;1.65;0.90;;;;;;;;;;5012092;28;20084;-35
2023/01/26 06:04:08;;;;;;;3.35;1.05;;;;;;;;;;5014763;28;20448;-35
2023/01/26 06:06:35;;;;;;;2.60;0.98;;;;;;;;;;5014697;28;20491;-36
2023/01/26 06:09:02;;;;;;;1.30;0.90;;;;;;;;;;5014644;28;20048;-35
2023/01/26 06:11:29;;;;;;;2.08;0.90;;;;;;;;;;5014534;28;20046;-35
2023/01/26 06:13:56;;;;;;;1.80;0.93;;;;;;;;;;5014665;28;20080;-35
2023/01/26 06:16:23;;;;;;;2.78;0.93;;;;;;;;;;5014477;28;20026;-35
2023/01/26 06:18:50;;;;;;;1.88;0.98;;;;;;;;;;5014599;28;20032;-35
2023/01/26 06:21:17;;;;;;;2.00;0.90;;;;;;;;;;5014463;28;20573;-35
2023/01/26 06:23:44;;;;;;;2.60;0.80;;;;;;;;;;5014479;28;20033;-36
2023/01/26 06:26:11;;;;;;;2.33;0.90;;;;;;;;;;5014321;28;20131;-36
2023/01/26 06:28:37;;;;;;;2.35;1.00;;;;;;;;;;5014264;28;20041;-35
2023/01/26 06:31:06;;;;;;;2.33;0.90;;;;;;;;;;4996757;28;20080;-35
2023/01/26 06:33:33;;;;;;;1.75;0.70;;;;;;;;;;5014235;28;20125;-36
2023/01/26 06:36:11;;;;;;;2.05;0.68;;;;;;;;;;5014105;28;20030;-36
2023/01/26 06:38:38;;;;;;;2.80;1.00;;;;;;;;;;5166356;23;20617;-31
2023/01/26 06:41:06;;;;;;;3.15;0.93;;;;;;;;;;5034745;28;20112;-31
2023/01/26 06:43:34;;;;;;;1.42;0.73;;;;;;;;;;5034325;28;20025;-32
2023/01/26 06:46:02;;;;;;;1.92;0.80;;;;;;;;;;5033840;28;20491;-31
2023/01/26 06:48:30;;;;;;;2.38;0.80;;;;;;;;;;5033561;28;20037;-31
2023/01/26 06:51:03;;;;;;;1.00;0.60;;;;;;;;;;5033763;28;20403;-31
2023/01/26 06:53:34;;;;;;;2.38;0.70;;;;;;;;;;5033667;28;20100;-32
2023/01/26 06:56:01;;;;;;;1.40;0.70;;;;;;;;;;5033643;28;20079;-31
2023/01/26 06:58:28;;;;;;;1.67;0.90;;;;;;;;;;5033448;28;20469;-32
2023/01/26 07:00:55;;;;;;;1.48;0.68;;;;;;;;;;5033552;28;20045;-31
2023/01/26 07:03:23;;;;;;;2.17;0.93;;;;;;;;;;5033498;28;20406;-31
2023/01/26 07:05:50;;;;;;;1.83;0.65;;;;;;;;;;5033370;28;20076;-31
2023/01/26 07:08:17;;;;;;;1.85;0.70;;;;;;;;;;5033222;28;20033;-32
2023/01/26 07:10:44;;;;;;;1.50;0.75;;;;;;;;;;5033378;28;20037;-31
2023/01/26 07:13:10;;;;;;;0.82;0.60;;;;;;;;;;5032523;28;20100;-31
2023/01/26 07:15:37;;;;;;;2.28;1.00;;;;;;;;;;5033251;28;20026;-31
2023/01/26 07:18:04;;;;;;;2.22;1.00;;;;;;;;;;5033080;28;20036;-32
2023/01/26 07:20:31;;;;;;;1.00;0.70;;;;;;;;;;5033190;28;20025;-32
2023/01/26 07:23:01;;;;;;;2.53;0.90;;;;;;;;;;5033155;28;20018;-32
2023/01/26 07:25:28;;;;;;;1.63;0.80;;;;;;;;;;5033089;28;20491;-31
2023/01/26 07:27:58;;;;;;;2.33;0.90;;;;;;;;;;5032862;28;20032;-31
2023/01/26 07:30:25;;;;;;;1.77;0.90;;;;;;;;;;5032944;28;20033;-31
2023/01/26 07:32:52;;;;;;;1.88;0.70;;;;;;;;;;5033021;28;20021;-32
2023/01/26 07:35:19;;;;;;;1.67;0.85;;;;;;;;;;5032989;28;20021;-32
2023/01/26 07:37:46;;;;;;;1.65;0.82;;;;;;;;;;5032730;28;20056;-31
2023/01/26 07:40:13;;;;;;;2.08;0.70;;;;;;;;;;5032867;28;20535;-31
2023/01/26 07:42:40;;;;;;;1.23;0.65;;;;;;;;;;5032853;28;20018;-31
2023/01/26 07:45:07;;;;;;;1.42;0.70;;;;;;;;;;5032871;28;20028;-31
2023/01/26 07:47:34;;;;;;;1.65;0.65;;;;;;;;;;5032722;28;20072;-31
2023/01/26 07:50:01;;;;;;;0.85;0.50;;;;;;;;;;5032687;28;20029;-31
2023/01/26 07:52:28;;;;;;;2.03;0.77;;;;;;;;;;5032920;28;20384;-31
2023/01/26 07:54:55;;;;;;;2.17;0.75;;;;;;;;;;5032729;28;20026;-31
2023/01/26 07:57:22;;;;;;;1.38;0.70;;;;;;;;;;5032543;28;20368;-31
2023/01/26 07:59:49;;;;;;;1.50;0.60;;;;;;;;;;5032681;28;20547;-31
2023/01/26 08:02:16;;;;;;;1.27;0.68;;;;;;;;;;5032666;28;20028;-31
2023/01/26 08:04:43;;;;;;;1.20;0.73;;;;;;;;;;5032565;28;20022;-31
2023/01/26 08:07:10;;;;;;;1.80;0.68;;;;;;;;;;5032609;28;20084;-31
2023/01/26 08:09:37;;;;;;;1.05;0.52;;;;;;;;;;5032472;28;20026;-31
2023/01/26 08:12:04;;;;;;;1.15;0.60;;;;;;;;;;5032560;28;20026;-31
2023/01/26 08:14:31;;;;;;;1.95;0.70;;;;;;;;;;5032496;28;20029;-31
2023/01/26 08:16:57;;;;;;;0.80;0.57;;;;;;;;;;5032290;28;20365;-31
2023/01/26 08:19:24;;;;;;;2.00;0.70;;;;;;;;;;5032440;28;20033;-31
2023/01/26 08:21:53;;;;;;;1.40;0.60;;;;;;;;;;5032486;28;20032;-31
2023/01/26 08:24:20;;;;;;;1.30;0.70;;;;;;;;;;5035197;28;20017;-31
2023/01/26 08:26:47;;;;;;;1.65;0.80;;;;;;;;;;5036404;28;20100;-31
2023/01/26 08:29:14;;;;;;;1.05;0.70;;;;;;;;;;5036176;28;20057;-31
2023/01/26 08:31:40;;;;;;;1.38;0.70;;;;;;;;;;5036398;28;20098;-31
2023/01/26 08:34:07;;;;;;;2.53;0.70;;;;;;;;;;5036323;28;20070;-31
2023/01/26 08:36:34;;;;;;;1.13;0.60;;;;;;;;;;5036310;28;20040;-31
2023/01/26 08:39:01;;;;;;;1.45;0.60;;;;;;;;;;5036013;28;20053;-31
2023/01/26 08:41:29;;;;;;;1.35;0.60;;;;;;;;;;5036161;28;20024;-31
2023/01/26 08:43:58;;;;;;;2.13;0.85;;;;;;;;;;5036067;28;20029;-31
2023/01/26 08:46:25;;;;;;;2.38;0.73;;;;;;;;;;5036011;28;20052;-31
2023/01/26 08:48:52;;;;;;;1.30;0.57;;;;;;;;;;5035915;28;20175;-31
2023/01/26 08:51:19;;;;;;;1.60;0.70;;;;;;;;;;5035983;28;20101;-31
2023/01/26 08:53:46;;;;;;;1.45;0.50;;;;;;;;;;5035900;28;20037;-31
2023/01/26 08:56:13;;;;;;;1.90;0.55;;;;;;;;;;5035854;28;20033;-31
2023/01/26 08:58:41;;;;;;;1.50;0.40;;;;;;;;;;5035812;28;20021;-31
2023/01/26 09:01:09;;;;;;;1.10;0.50;;;;;;;;;;5035862;28;20032;-31
2023/01/26 09:03:36;;;;;;;0.95;0.60;;;;;;;;;;5035707;28;20072;-31
2023/01/26 09:06:04;;;;;;;1.52;0.55;;;;;;;;;;5035787;28;20383;-31
2023/01/26 09:08:31;;;;;;;1.05;0.57;;;;;;;;;;5035586;28;20040;-31
2023/01/26 09:10:58;;;;;;;2.28;0.50;;;;;;;;;;5035628;28;20030;-31
2023/01/26 09:13:25;;;;;;;1.08;0.50;;;;;;;;;;5035584;28;20029;-32
2023/01/26 09:15:52;;;;;;;0.77;0.40;;;;;;;;;;5035498;28;20037;-31
2023/01/26 09:18:19;;;;;;;1.10;0.60;;;;;;;;;;5035464;28;20026;-31
2023/01/26 09:20:46;;;;;;;1.45;0.52;;;;;;;;;;5035383;28;20083;-32
2023/01/26 09:23:15;;;;;;;0.73;0.50;;;;;;;;;;5035406;28;20021;-31
2023/01/26 09:25:42;;;;;;;1.73;0.50;;;;;;;;;;5035335;28;20033;-31
2023/01/26 09:28:09;;;;;;;0.95;0.50;;;;;;;;;;5035097;28;20078;-31
2023/01/26 09:30:36;;;;;;;1.25;0.70;;;;;;;;;;5035345;28;20026;-31
2023/01/26 09:33:05;;;;;;;1.80;0.70;;;;;;;;;;5035283;28;20029;-32
2023/01/26 09:35:32;;;;;;;1.42;0.50;;;;;;;;;;5034246;28;20543;-31
2023/01/26 09:37:59;;;;;;;2.10;0.80;;;;;;;;;;5034863;28;20073;-31
2023/01/26 09:40:36;;;;;;;1.15;0.60;;;;;;;;;;5035076;28;20025;-31
2023/01/26 09:43:14;;;;;;;1.15;0.60;;;;;;;;;;5035013;28;20032;-31
2023/01/26 09:45:47;;;;;;;1.25;0.60;;;;;;;;;;5034948;28;20026;-31
2023/01/26 09:48:34;;;;;;;1.02;0.40;;;;;;;;;;5034887;28;20353;-31
2023/01/26 09:51:14;;;;;;;1.88;0.60;;;;;;;;;;5034821;28;20490;-31
2023/01/26 09:53:45;;;;;;;1.40;0.50;;;;;;;;;;5035028;28;20025;-31
2023/01/26 09:56:23;;;;;;;1.30;0.60;;;;;;;;;;5034833;28;20034;-31
2023/01/26 09:58:55;;;;;;;1.27;0.60;;;;;;;;;;5034687;28;20032;-31
2023/01/26 10:01:40;;;;;;;0.77;0.40;;;;;;;;;;5034762;28;20410;-31
2023/01/26 10:04:35;;;;;;;1.67;0.60;;;;;;;;;;5034645;28;20429;-31
2023/01/26 10:07:09;;;;;;;0.65;0.40;;;;;;;;;;5032440;28;20176;-31
2023/01/26 10:09:37;;;;;;;1.35;0.50;;;;;;;;;;5034451;28;20082;-31
2023/01/26 10:12:07;;;;;;;0.73;0.50;;;;;;;;;;5034497;28;20036;-31
2023/01/26 10:14:42;;;;;;;0.80;0.50;;;;;;;;;;5034431;28;20480;-31
2023/01/26 10:17:35;;;;;;;1.63;0.50;;;;;;;;;;5034254;28;20021;-31
2023/01/26 10:20:08;;;;;;;1.40;0.50;;;;;;;;;;5030989;28;20042;-31
2023/01/26 10:22:41;;;;;;;0.88;0.40;;;;;;;;;;5034308;28;20036;-31
2023/01/26 10:25:19;;;;;;;0.60;0.40;;;;;;;;;;5034258;28;20064;-31
2023/01/26 10:27:46;;;;;;;0.82;0.50;;;;;;;;;;5034124;28;20387;-31
2023/01/26 10:30:15;;;;;;;1.58;0.68;;;;;;;;;;5034032;28;20025;-31
2023/01/26 10:32:42;;;;;;;0.77;0.50;;;;;;;;;;5034107;28;20434;-31
2023/01/26 10:35:20;;;;;;;1.08;0.50;;;;;;;;;;5033960;28;20391;-31
2023/01/26 10:37:47;;;;;;;1.35;0.60;;;;;;;;;;5033678;28;20045;-31
2023/01/26 10:40:16;;;;;;;1.05;0.50;;;;;;;;;;5034013;28;20033;-31
2023/01/26 10:42:53;;;;;;;0.70;0.52;;;;;;;;;;5033850;28;20025;-31
2023/01/26 10:45:26;;;;;;;1.02;0.50;;;;;;;;;;5033823;28;20151;-32
2023/01/26 10:48:16;;;;;;;1.70;0.40;;;;;;;;;;5033588;28;20030;-32
2023/01/26 10:50:44;;;;;;;1.05;0.40;;;;;;;;;;5023891;28;20037;-32
2023/01/26 10:53:17;;;;;;;1.58;0.40;;;;;;;;;;5033930;28;20099;-32
2023/01/26 10:55:57;;;;;;;1.27;0.60;;;;;;;;;;5033597;28;20490;-32
2023/01/26 10:58:40;;;;;;;1.20;0.60;;;;;;;;;;5033488;28;20053;-31
2023/01/26 11:01:11;;;;;;;0.93;0.35;;;;;;;;;;5033565;28;20025;-32
2023/01/26 11:03:38;;;;;;;1.02;0.45;;;;;;;;;;5033440;28;20029;-32
2023/01/26 11:06:07;;;;;;;1.42;0.50;;;;;;;;;;5033473;28;20099;-32
2023/01/26 11:08:34;;;;;;;1.00;0.52;;;;;;;;;;5033188;28;20056;-32
2023/01/26 11:11:02;;;;;;;3.53;0.50;;;;;;;;;;5033353;28;20026;-32
2023/01/26 11:13:30;;;;;;;1.15;0.50;;;;;;;;;;5033355;28;20488;-32
2023/01/26 11:16:05;;;;;;;0.98;0.50;;;;;;;;;;5033266;28;20503;-32
2023/01/26 11:18:50;;;;;;;1.05;0.50;;;;;;;;;;5033120;28;20495;-32
2023/01/26 11:21:31;;;;;;;2.80;0.68;;;;;;;;;;5033192;28;20017;-32
2023/01/26 11:24:03;;;;;;;0.90;0.70;;;;;;;;;;5033050;28;20361;-32
2023/01/26 11:26:30;;;;;;;;;;;;;;;;;;5033510;28;20373;-31
2023/01/26 11:28:56;;;;;;;1.15;0.52;;;;;;;;;;5033116;28;20380;-32
2023/01/26 11:31:30;;;;;;;0.90;0.60;;;;;;;;;;5033121;28;20028;-31
2023/01/26 11:34:05;;;;;;;0.93;0.47;;;;;;;;;;5033183;28;20495;-31
2023/01/26 11:36:44;;;;;;;2.97;0.70;;;;;;;;;;5032826;28;20021;-30
2023/01/26 11:39:17;;;;;;;0.95;0.47;;;;;;;;;;5032739;28;20045;-31
2023/01/26 11:42:16;;;;;;;1.60;0.50;;;;;;;;;;5032808;28;20076;-31
2023/01/26 11:44:52;;;;;;;1.08;0.60;;;;;;;;;;4989638;28;20431;-31
2023/01/26 11:47:28;;;;;;;1.48;0.50;;;;;;;;;;5032755;28;20017;-31
2023/01/26 11:50:02;;;;;;;1.08;0.68;;;;;;;;;;5032680;28;20487;-31
2023/01/26 11:52:47;;;;;;;1.33;0.60;;;;;;;;;;5032704;28;20591;-31
2023/01/26 11:55:14;;;;;;;2.30;0.70;;;;;;;;;;5032614;28;20063;-31
2023/01/26 11:57:43;;;;;;;0.68;0.55;;;;;;;;;;5032119;28;20056;-31
2023/01/26 12:00:21;;;;;;;0.98;0.52;;;;;;;;;;5032958;28;20037;-31
2023/01/26 12:03:01;;;;;;;1.08;0.47;;;;;;;;;;5032587;28;20029;-31
2023/01/26 12:05:37;;;;;;;0.75;0.40;;;;;;;;;;5032561;28;20086;-31
2023/01/26 12:08:22;;;;;;;1.45;0.60;;;;;;;;;;5032491;28;20491;-31
2023/01/26 12:11:22;;;;;;;0.85;0.50;;;;;;;;;;5032497;28;20121;-31
2023/01/26 12:14:09;;;;;;;0.85;0.47;;;;;;;;;;5032590;28;20021;-30
2023/01/26 12:16:45;;;;;;;1.05;0.57;;;;;;;;;;4992263;28;20046;-31
2023/01/26 12:19:32;;;;;;;0.85;0.45;;;;;;;;;;5032443;28;20029;-30
2023/01/26 12:22:02;;;;;;;0.68;0.40;;;;;;;;;;5032516;28;20021;-31
2023/01/26 12:24:36;;;;;;;0.80;0.40;;;;;;;;;;5032374;28;20028;-32
2023/01/26 12:27:05;;;;;;;0.68;0.35;;;;;;;;;;5032276;28;20387;-31
2023/01/26 12:29:41;;;;;;;0.77;0.50;;;;;;;;;;5032260;28;20033;-31
2023/01/26 12:32:12;;;;;;;0.52;0.40;;;;;;;;;;5032339;28;20021;-31
2023/01/26 12:34:39;;;;;;;1.17;0.50;;;;;;;;;;5032332;28;20104;-31
2023/01/26 12:37:26;;;;;;;0.80;0.50;;;;;;;;;;5032180;28;20079;-31
2023/01/26 12:40:06;;;;;;;0.80;0.40;;;;;;;;;;5032297;28;20092;-31
2023/01/26 12:42:33;;;;;;;0.85;0.60;;;;;;;;;;5032220;28;20031;-31
2023/01/26 12:45:03;;;;;;;0.70;0.43;;;;;;;;;;5032210;28;20026;-31
2023/01/26 12:47:33;;;;;;;0.82;0.50;;;;;;;;;;5032159;28;20026;-31
2023/01/26 12:50:03;;;;;;;1.05;0.40;;;;;;;;;;5032157;28;20096;-31
2023/01/26 12:52:30;;;;;;;0.82;0.50;;;;;;;;;;5032222;28;20096;-31
2023/01/26 12:55:20;;;;;;;0.63;0.40;;;;;;;;;;5032186;28;20021;-31
2023/01/26 12:57:53;;;;;;;1.98;0.60;;;;;;;;;;4995202;28;20511;-31
2023/01/26 13:00:22;;;;;;;0.93;0.50;;;;;;;;;;5032166;28;20483;-31
2023/01/26 13:02:51;;;;;;;0.85;0.50;;;;;;;;;;5032008;28;20073;-31
2023/01/26 13:05:29;;;;;;;1.00;0.40;;;;;;;;;;5032081;28;20100;-31
2023/01/26 13:07:56;;;;;;;0.70;0.43;;;;;;;;;;5032115;28;20021;-31
2023/01/26 13:10:24;;;;;;;1.00;0.40;;;;;;;;;;5033006;28;20120;-31
2023/01/26 13:12:51;;;;;;;1.95;0.40;;;;;;;;;;5035622;28;20049;-33
2023/01/26 13:15:19;;;;;;;0.47;0.30;;;;;;;;;;5035598;28;20450;-31
2023/01/26 13:17:56;;;;;;;0.60;0.40;;;;;;;;;;5035310;28;20025;-33
2023/01/26 13:20:42;;;;;;;0.70;0.30;;;;;;;;;;5035402;28;20026;-33
2023/01/26 13:23:32;;;;;;;1.42;0.40;;;;;;;;;;5035372;28;20120;-33
2023/01/26 13:26:22;;;;;;;0.95;0.40;;;;;;;;;;5025305;28;20044;-33
2023/01/26 13:28:49;;;;;;;0.50;0.40;;;;;;;;;;5025256;28;20073;-31
2023/01/26 13:31:30;;;;;;;0.57;0.40;;;;;;;;;;5035262;28;20021;-33
2023/01/26 13:33:59;;;;;;;0.95;0.50;;;;;;;;;;5035128;28;20030;-32
2023/01/26 13:36:29;;;;;;;0.50;0.30;;;;;;;;;;5035082;28;20488;-33
2023/01/26 13:38:59;;;;;;;1.55;0.50;;;;;;;;;;5034989;28;20140;-33
2023/01/26 13:41:26;;;;;;;1.10;0.50;;;;;;;;;;5035116;28;20021;-30
2023/01/26 13:44:07;;;;;;;1.17;0.60;;;;;;;;;;5035038;28;20040;-31
2023/01/26 13:46:45;;;;;;;0.60;0.35;;;;;;;;;;5034929;28;20479;-30
2023/01/26 13:49:25;;;;;;;0.85;0.60;;;;;;;;;;5034920;28;20049;-30
2023/01/26 13:51:52;;;;;;;0.90;0.50;;;;;;;;;;5034886;28;20550;-31
2023/01/26 13:54:19;;;;;;;0.90;0.47;;;;;;;;;;5034805;28;20074;-31
2023/01/26 13:57:01;;;;;;;0.85;0.40;;;;;;;;;;5034706;28;20063;-31
2023/01/26 13:59:27;;;;;;;;;;;;;;;;;;5035168;28;20029;-31
2023/01/26 14:01:56;;;;;;;2.50;0.40;;;;;;;;;;5034763;28;19913;-31
2023/01/26 14:04:24;;;;;;;1.00;0.40;;;;;;;;;;5034628;28;20021;-31
2023/01/26 14:06:57;;;;;;;0.63;0.47;;;;;;;;;;5034593;28;20490;-31
2023/01/26 14:09:26;;;;;;;1.17;0.45;;;;;;;;;;5034523;28;20030;-31
2023/01/26 14:12:04;;;;;;;0.63;0.40;;;;;;;;;;5034530;28;20028;-31
2023/01/26 14:14:36;;;;;;;0.75;0.50;;;;;;;;;;5034479;28;20025;-31
2023/01/26 14:17:07;;;;;;;0.75;0.50;;;;;;;;;;5034307;28;20018;-31
2023/01/26 14:19:39;;;;;;;0.90;0.40;;;;;;;;;;5034364;28;20836;-31
2023/01/26 14:22:13;;;;;;;1.50;0.40;;;;;;;;;;5033985;28;20040;-31
2023/01/26 14:24:41;;;;;;;0.52;0.30;;;;;;;;;;5034231;28;20396;-31
2023/01/26 14:27:28;;;;;;;0.65;0.40;;;;;;;;;;5034075;28;20104;-31
2023/01/26 14:29:54;;;;;;;0.80;0.40;;;;;;;;;;5034356;28;20040;-31
2023/01/26 14:32:28;;;;;;;0.68;0.40;;;;;;;;;;5034167;28;20495;-31
2023/01/26 14:34:57;;;;;;;0.30;0.30;;;;;;;;;;5034069;28;20046;-31
2023/01/26 14:37:24;;;;;;;0.60;0.50;;;;;;;;;;5033865;28;20022;-31
2023/01/26 14:40:09;;;;;;;0.52;0.30;;;;;;;;;;5033898;28;20026;-31
2023/01/26 14:42:36;;;;;;;1.92;0.57;;;;;;;;;;5033853;28;20037;-31
2023/01/26 14:45:04;;;;;;;0.55;0.40;;;;;;;;;;5033961;28;20020;-31
2023/01/26 14:47:32;;;;;;;0.70;0.40;;;;;;;;;;5033687;28;20037;-31
2023/01/26 14:50:15;;;;;;;1.38;0.40;;;;;;;;;;5033731;28;20104;-31
2023/01/26 14:52:44;;;;;;;1.00;0.47;;;;;;;;;;5033785;28;20022;-31
2023/01/26 14:55:30;;;;;;;0.40;0.40;;;;;;;;;;5033689;28;20025;-31
2023/01/26 14:57:58;;;;;;;0.30;0.30;;;;;;;;;;5033517;28;20022;-31
2023/01/26 15:00:30;;;;;;;0.93;0.40;;;;;;;;;;5033524;28;20040;-31
2023/01/26 15:02:58;;;;;;;0.73;0.50;;;;;;;;;;5033585;28;20021;-31
2023/01/26 15:05:36;;;;;;;0.40;0.30;;;;;;;;;;5033510;28;20468;-31
2023/01/26 15:08:05;;;;;;;0.32;0.30;;;;;;;;;;5033408;28;20116;-31
2023/01/26 15:10:43;;;;;;;0.95;0.35;;;;;;;;;;5033337;28;20037;-31
2023/01/26 15:13:15;;;;;;;0.65;0.40;;;;;;;;;;5033436;28;20479;-31
2023/01/26 15:15:47;;;;;;;1.02;0.40;;;;;;;;;;5033362;28;20041;-31
2023/01/26 15:18:14;;;;;;;0.60;0.40;;;;;;;;;;5033123;28;20037;-31
2023/01/26 15:20:59;;;;;;;0.43;0.40;;;;;;;;;;5033178;28;20108;-31
2023/01/26 15:23:31;;;;;;;0.77;0.40;;;;;;;;;;5033448;28;20029;-31
2023/01/26 15:26:17;;;;;;;0.30;0.30;;;;;;;;;;5033187;28;20032;-31
2023/01/26 15:28:50;;;;;;;0.73;0.30;;;;;;;;;;5019611;28;20096;-31
2023/01/26 15:31:23;;;;;;;0.43;0.30;;;;;;;;;;5033101;28;20020;-31
2023/01/26 15:33:51;;;;;;;0.50;0.47;;;;;;;;;;5032350;28;20029;-31
2023/01/26 15:36:36;;;;;;;0.82;0.45;;;;;;;;;;5032195;28;20034;-31
2023/01/26 15:39:11;;;;;;;0.20;0.20;;;;;;;;;;5032528;28;20053;-32
2023/01/26 15:41:38;;;;;;;0.77;0.30;;;;;;;;;;5032846;28;20033;-31
2023/01/26 15:44:05;;;;;;;0.70;0.43;;;;;;;;;;5032904;28;20480;-31
2023/01/26 15:46:32;;;;;;;0.50;0.30;;;;;;;;;;5033030;28;20455;-31
2023/01/26 15:48:59;;;;;;;0.60;0.30;;;;;;;;;;5032749;28;20113;-31
2023/01/26 15:51:26;;;;;;;0.52;0.38;;;;;;;;;;5032751;28;20026;-31
2023/01/26 15:53:53;;;;;;;0.40;0.30;;;;;;;;;;5032731;28;20033;-31